createdAt,value
2017-02-02T00:00:18.462Z,15.19
2017-02-02T00:01:27.738Z,15.14
2017-02-02T00:02:38.323Z,15.14
2017-02-02T00:03:48.086Z,15.16
2017-02-02T00:04:57.365Z,15.13
2017-02-02T00:06:06.648Z,15.17
2017-02-02T00:07:16.364Z,15.09
2017-02-02T00:08:26.515Z,15.2
2017-02-02T00:09:36.718Z,15.23
2017-02-02T00:10:46.881Z,15.16
2017-02-02T00:11:56.596Z,15.16
2017-02-02T00:13:07.186Z,15.21
2017-02-02T00:14:17.335Z,15.19
2017-02-02T00:15:27.102Z,15.11
2017-02-02T00:16:36.386Z,15.19
2017-02-02T00:17:46.983Z,15.19
2017-02-02T00:18:57.568Z,15.13
2017-02-02T00:20:08.153Z,15.19
2017-02-02T00:21:17.916Z,15.16
2017-02-02T00:22:27.195Z,15.16
2017-02-02T00:23:37.346Z,15.17
2017-02-02T00:24:47.058Z,15.16
2017-02-02T00:25:56.775Z,15.03
2017-02-02T00:27:06.100Z,15.16
2017-02-02T00:28:16.257Z,15.16
2017-02-02T00:29:26.860Z,15.13
2017-02-02T00:30:37.013Z,15.13
2017-02-02T00:31:46.729Z,15.11
2017-02-02T00:32:56.935Z,15.09
2017-02-02T00:34:06.645Z,15.1
2017-02-02T00:35:16.371Z,15.11
2017-02-02T00:36:26.082Z,15.1
2017-02-02T00:37:36.237Z,15.03
2017-02-02T00:38:46.441Z,15.11
2017-02-02T00:39:55.723Z,15.03
2017-02-02T00:41:05.440Z,15.09
2017-02-02T00:42:15.588Z,15.09
2017-02-02T00:43:26.173Z,15.07
2017-02-02T00:44:35.938Z,15.09
2017-02-02T00:45:46.092Z,15.03
2017-02-02T00:46:55.801Z,15.09
2017-02-02T00:48:05.515Z,15.1
2017-02-02T00:49:14.801Z,15.1
2017-02-02T00:50:24.570Z,15.03
2017-02-02T00:51:34.284Z,15.06
2017-02-02T00:52:44.004Z,15.01
2017-02-02T00:53:53.293Z,15.13
2017-02-02T00:55:02.575Z,15.07
2017-02-02T00:56:12.784Z,15.09
2017-02-02T00:57:22.497Z,15.1
2017-02-02T00:58:32.650Z,15.1
2017-02-02T00:59:41.943Z,15.02
2017-02-02T01:00:52.119Z,14.94
2017-02-02T01:02:01.892Z,15.09
2017-02-02T01:03:11.609Z,14.98
2017-02-02T01:04:21.760Z,14.98
2017-02-02T01:05:31.045Z,14.99
2017-02-02T01:06:40.325Z,14.94
2017-02-02T01:07:50.524Z,14.99
2017-02-02T01:09:00.240Z,14.96
2017-02-02T01:10:10.392Z,14.95
2017-02-02T01:11:20.109Z,14.98
2017-02-02T01:12:29.383Z,14.91
2017-02-02T01:13:39.593Z,14.96
2017-02-02T01:14:49.319Z,14.92
2017-02-02T01:15:58.603Z,14.91
2017-02-02T01:17:08.749Z,14.92
2017-02-02T01:18:18.026Z,14.98
2017-02-02T01:19:28.234Z,14.91
2017-02-02T01:20:37.943Z,14.92
2017-02-02T01:21:48.965Z,14.98
2017-02-02T01:22:58.683Z,14.98
2017-02-02T01:24:08.407Z,15.01
2017-02-02T01:25:18.624Z,14.98
2017-02-02T01:26:28.337Z,14.95
2017-02-02T01:27:38.496Z,15.01
2017-02-02T01:28:47.778Z,14.94
2017-02-02T01:29:57.061Z,14.89
2017-02-02T01:31:07.264Z,14.94
2017-02-02T01:32:17.417Z,14.98
2017-02-02T01:33:27.132Z,14.92
2017-02-02T01:34:36.843Z,14.94
2017-02-02T01:35:46.557Z,14.92
2017-02-02T01:36:56.328Z,14.95
2017-02-02T01:38:06.483Z,14.92
2017-02-02T01:39:16.200Z,14.88
2017-02-02T01:40:25.484Z,14.96
2017-02-02T01:41:35.641Z,14.96
2017-02-02T01:42:45.403Z,14.88
2017-02-02T01:43:55.121Z,14.91
2017-02-02T01:45:04.843Z,14.86
2017-02-02T01:46:15.434Z,14.88
2017-02-02T01:47:25.609Z,14.89
2017-02-02T01:48:35.372Z,14.91
2017-02-02T01:49:45.958Z,14.91
2017-02-02T01:50:55.234Z,14.92
2017-02-02T01:52:05.830Z,14.89
2017-02-02T01:53:15.109Z,14.7
2017-02-02T01:54:25.318Z,14.86
2017-02-02T01:55:35.031Z,14.8
2017-02-02T01:56:45.181Z,14.77
2017-02-02T01:57:54.463Z,14.84
2017-02-02T01:59:04.182Z,14.8
2017-02-02T02:00:14.820Z,14.91
2017-02-02T02:01:24.538Z,14.89
2017-02-02T02:02:34.246Z,14.75
2017-02-02T02:03:43.961Z,14.83
2017-02-02T02:04:53.676Z,14.8
2017-02-02T02:06:03.439Z,14.77
2017-02-02T02:07:13.156Z,14.83
2017-02-02T02:08:22.454Z,14.73
2017-02-02T02:09:32.173Z,14.81
2017-02-02T02:10:44.924Z,14.77
2017-02-02T02:11:54.689Z,14.75
2017-02-02T02:13:04.854Z,14.72
2017-02-02T02:14:14.576Z,14.81
2017-02-02T02:15:23.867Z,14.78
2017-02-02T02:16:34.031Z,14.8
2017-02-02T02:17:44.667Z,14.75
2017-02-02T02:18:53.946Z,14.77
2017-02-02T02:20:03.664Z,14.81
2017-02-02T02:21:13.380Z,14.72
2017-02-02T02:22:23.986Z,14.7
2017-02-02T02:23:34.209Z,14.7
2017-02-02T02:24:43.492Z,14.69
2017-02-02T02:25:53.646Z,14.68
2017-02-02T02:27:03.804Z,14.8
2017-02-02T02:28:13.087Z,14.83
2017-02-02T02:29:22.864Z,14.77
2017-02-02T02:30:32.592Z,14.7
2017-02-02T02:31:41.876Z,14.72
2017-02-02T02:32:51.162Z,14.78
2017-02-02T02:34:00.888Z,14.72
2017-02-02T02:35:10.681Z,14.81
2017-02-02T02:36:20.406Z,14.73
2017-02-02T02:37:30.127Z,14.7
2017-02-02T02:38:39.407Z,14.69
2017-02-02T02:39:50.449Z,14.73
2017-02-02T02:41:00.226Z,14.73
2017-02-02T02:42:09.948Z,14.72
2017-02-02T02:43:19.677Z,14.73
2017-02-02T02:44:28.962Z,14.72
2017-02-02T02:45:39.114Z,14.69
2017-02-02T02:46:49.341Z,14.72
2017-02-02T02:47:59.066Z,14.69
2017-02-02T02:49:09.659Z,14.77
2017-02-02T02:50:19.380Z,14.62
2017-02-02T02:51:28.660Z,14.68
2017-02-02T02:52:38.430Z,14.72
2017-02-02T02:53:48.148Z,14.61
2017-02-02T02:54:57.873Z,14.75
2017-02-02T02:56:08.473Z,14.68
2017-02-02T02:57:17.755Z,14.62
2017-02-02T02:58:27.527Z,14.64
2017-02-02T02:59:37.248Z,14.68
2017-02-02T03:00:46.978Z,14.69
2017-02-02T03:01:56.708Z,14.7
2017-02-02T03:03:06.423Z,14.68
2017-02-02T03:04:16.629Z,14.64
2017-02-02T03:05:26.342Z,14.68
2017-02-02T03:06:36.504Z,14.65
2017-02-02T03:07:46.220Z,14.68
2017-02-02T03:08:55.501Z,14.62
2017-02-02T03:10:05.716Z,14.62
2017-02-02T03:11:15.006Z,14.72
2017-02-02T03:12:24.737Z,14.58
2017-02-02T03:13:34.488Z,14.68
2017-02-02T03:14:44.217Z,14.64
2017-02-02T03:15:53.988Z,14.58
2017-02-02T03:17:04.143Z,14.57
2017-02-02T03:18:13.425Z,14.65
2017-02-02T03:19:23.582Z,14.68
2017-02-02T03:20:33.737Z,14.65
2017-02-02T03:21:43.515Z,14.55
2017-02-02T03:22:53.680Z,14.64
2017-02-02T03:24:03.410Z,14.6
2017-02-02T03:25:13.126Z,14.62
2017-02-02T03:26:23.280Z,14.69
2017-02-02T03:27:33.506Z,14.68
2017-02-02T03:28:42.791Z,14.58
2017-02-02T03:29:52.963Z,14.6
2017-02-02T03:31:02.685Z,14.6
2017-02-02T03:32:12.404Z,14.62
2017-02-02T03:33:23.063Z,14.6
2017-02-02T03:34:33.224Z,14.62
2017-02-02T03:35:42.510Z,14.6
2017-02-02T03:36:52.236Z,14.58
2017-02-02T03:38:02.408Z,14.58
2017-02-02T03:39:12.177Z,14.58
2017-02-02T03:40:21.458Z,14.57
2017-02-02T03:41:30.735Z,14.58
2017-02-02T03:42:40.891Z,14.57
2017-02-02T03:43:51.497Z,14.52
2017-02-02T03:45:00.831Z,14.5
2017-02-02T03:46:10.120Z,14.5
2017-02-02T03:47:19.840Z,14.52
2017-02-02T03:48:29.565Z,14.46
2017-02-02T03:49:39.724Z,14.43
2017-02-02T03:50:49.498Z,14.43
2017-02-02T03:51:59.661Z,14.43
2017-02-02T03:53:08.943Z,14.43
2017-02-02T03:54:19.111Z,14.4
2017-02-02T03:55:28.389Z,14.45
2017-02-02T03:56:38.154Z,14.42
2017-02-02T03:57:47.875Z,14.42
2017-02-02T03:58:58.477Z,14.42
2017-02-02T04:00:07.762Z,14.5
2017-02-02T04:01:18.362Z,14.46
2017-02-02T04:02:28.132Z,14.42
2017-02-02T04:03:37.857Z,14.45
2017-02-02T04:04:48.030Z,14.43
2017-02-02T04:05:57.754Z,14.4
2017-02-02T04:07:07.905Z,14.43
2017-02-02T04:08:17.672Z,14.45
2017-02-02T04:09:27.827Z,14.37
2017-02-02T04:10:37.559Z,14.45
2017-02-02T04:11:47.709Z,14.39
2017-02-02T04:12:57.445Z,14.4
2017-02-02T04:14:07.215Z,14.36
2017-02-02T04:15:17.369Z,14.37
2017-02-02T04:16:27.534Z,14.36
2017-02-02T04:17:37.255Z,14.33
2017-02-02T04:18:46.981Z,14.39
2017-02-02T04:19:56.754Z,14.46
2017-02-02T04:21:06.035Z,14.39
2017-02-02T04:22:15.755Z,14.42
2017-02-02T04:23:26.358Z,14.4
2017-02-02T04:24:36.083Z,14.4
2017-02-02T04:25:45.427Z,14.42
2017-02-02T04:26:56.024Z,14.37
2017-02-02T04:28:05.752Z,14.25
2017-02-02T04:29:16.359Z,14.28
2017-02-02T04:30:25.639Z,14.39
2017-02-02T04:31:35.411Z,14.39
2017-02-02T04:32:46.040Z,14.39
2017-02-02T04:33:55.762Z,14.28
2017-02-02T04:35:06.363Z,14.39
2017-02-02T04:36:16.090Z,14.37
2017-02-02T04:37:25.853Z,14.28
2017-02-02T04:38:36.015Z,14.28
2017-02-02T04:39:46.613Z,14.28
2017-02-02T04:40:55.893Z,14.29
2017-02-02T04:42:06.052Z,14.29
2017-02-02T04:43:15.977Z,14.29
2017-02-02T04:44:26.138Z,14.35
2017-02-02T04:45:36.295Z,14.36
2017-02-02T04:46:46.461Z,14.39
2017-02-02T04:47:55.750Z,14.29
2017-02-02T04:49:05.522Z,14.29
2017-02-02T04:50:16.548Z,14.33
2017-02-02T04:51:26.692Z,14.36
2017-02-02T04:52:35.974Z,14.36
2017-02-02T04:53:45.686Z,14.36
2017-02-02T04:54:55.901Z,14.27
2017-02-02T04:56:05.185Z,14.25
2017-02-02T04:57:15.787Z,14.33
2017-02-02T04:58:25.100Z,14.25
2017-02-02T04:59:35.262Z,14.27
2017-02-02T05:00:45.033Z,14.33
2017-02-02T05:01:54.763Z,14.28
2017-02-02T05:03:04.924Z,14.29
2017-02-02T05:04:14.645Z,14.32
2017-02-02T05:05:24.806Z,14.25
2017-02-02T05:06:34.135Z,14.35
2017-02-02T05:07:43.857Z,14.28
2017-02-02T05:08:53.597Z,14.27
2017-02-02T05:10:03.781Z,14.28
2017-02-02T05:11:13.505Z,14.28
2017-02-02T05:12:22.837Z,14.25
2017-02-02T05:13:32.567Z,14.32
2017-02-02T05:14:42.284Z,14.28
2017-02-02T05:15:52.010Z,14.25
2017-02-02T05:17:02.175Z,14.27
2017-02-02T05:18:11.716Z,14.36
2017-02-02T05:19:21.440Z,14.25
2017-02-02T05:20:32.054Z,14.29
2017-02-02T05:21:42.219Z,14.28
2017-02-02T05:22:52.378Z,14.27
2017-02-02T05:24:02.586Z,14.33
2017-02-02T05:25:12.305Z,14.25
2017-02-02T05:26:22.907Z,14.25
2017-02-02T05:27:32.622Z,14.35
2017-02-02T05:28:42.791Z,14.25
2017-02-02T05:29:53.012Z,14.32
2017-02-02T05:31:03.174Z,14.29
2017-02-02T05:32:12.454Z,14.27
2017-02-02T05:33:22.177Z,14.36
2017-02-02T05:34:31.900Z,14.24
2017-02-02T05:35:41.670Z,14.35
2017-02-02T05:36:50.955Z,14.33
2017-02-02T05:38:00.235Z,14.32
2017-02-02T05:39:09.525Z,14.25
2017-02-02T05:40:19.696Z,14.33
2017-02-02T05:41:29.910Z,14.33
2017-02-02T05:42:39.189Z,14.25
2017-02-02T05:43:49.345Z,14.28
2017-02-02T05:44:59.507Z,14.33
2017-02-02T05:46:10.111Z,14.29
2017-02-02T05:47:21.206Z,14.27
2017-02-02T05:48:30.926Z,14.32
2017-02-02T05:49:40.644Z,14.27
2017-02-02T05:50:49.924Z,14.29
2017-02-02T05:51:59.202Z,14.27
2017-02-02T05:53:09.432Z,14.28
2017-02-02T05:54:18.716Z,14.28
2017-02-02T05:55:28.437Z,14.27
2017-02-02T05:56:38.167Z,14.28
2017-02-02T05:57:47.892Z,14.29
2017-02-02T05:58:58.107Z,14.28
2017-02-02T06:00:08.706Z,14.29
2017-02-02T06:01:18.434Z,14.29
2017-02-02T06:02:28.591Z,14.28
2017-02-02T06:03:38.313Z,14.33
2017-02-02T06:04:47.642Z,14.33
2017-02-02T06:05:57.372Z,14.28
2017-02-02T06:07:07.097Z,14.27
2017-02-02T06:08:16.817Z,14.21
2017-02-02T06:09:27.418Z,14.25
2017-02-02T06:10:37.629Z,14.25
2017-02-02T06:11:47.798Z,14.18
2017-02-02T06:12:57.515Z,14.27
2017-02-02T06:14:06.796Z,14.28
2017-02-02T06:15:16.117Z,14.28
2017-02-02T06:16:25.885Z,14.24
2017-02-02T06:17:36.030Z,14.37
2017-02-02T06:18:45.748Z,14.25
2017-02-02T06:19:56.344Z,14.33
2017-02-02T06:21:06.935Z,14.29
2017-02-02T06:22:16.709Z,14.35
2017-02-02T06:23:25.990Z,14.29
2017-02-02T06:24:36.155Z,14.33
2017-02-02T06:25:45.872Z,14.25
2017-02-02T06:26:56.028Z,14.28
2017-02-02T06:28:06.244Z,14.29
2017-02-02T06:29:16.004Z,14.29
2017-02-02T06:30:26.159Z,14.32
2017-02-02T06:31:36.304Z,14.28
2017-02-02T06:32:46.021Z,14.25
2017-02-02T06:33:55.792Z,14.33
2017-02-02T06:35:05.952Z,14.32
2017-02-02T06:36:15.671Z,14.25
2017-02-02T06:37:25.390Z,14.28
2017-02-02T06:38:35.985Z,14.27
2017-02-02T06:39:45.753Z,14.27
2017-02-02T06:40:55.034Z,14.28
2017-02-02T06:42:04.324Z,14.25
2017-02-02T06:43:14.061Z,14.22
2017-02-02T06:44:23.346Z,14.21
2017-02-02T06:45:33.271Z,14.27
2017-02-02T06:46:42.997Z,14.15
2017-02-02T06:47:52.291Z,14.22
2017-02-02T06:49:01.572Z,14.29
2017-02-02T06:50:11.290Z,14.24
2017-02-02T06:51:21.502Z,14.2
2017-02-02T06:52:31.231Z,14.18
2017-02-02T06:53:40.955Z,14.2
2017-02-02T06:54:51.109Z,14.2
2017-02-02T06:56:01.266Z,14.2
2017-02-02T06:57:10.594Z,14.09
2017-02-02T06:58:20.760Z,14.25
2017-02-02T06:59:30.921Z,14.14
2017-02-02T07:00:40.643Z,14.22
2017-02-02T07:01:49.928Z,14.2
2017-02-02T07:03:00.138Z,14.17
2017-02-02T07:04:09.430Z,14.2
2017-02-02T07:05:19.151Z,14.17
2017-02-02T07:06:28.875Z,14.17
2017-02-02T07:07:38.612Z,14.22
2017-02-02T07:08:47.947Z,14.17
2017-02-02T07:09:58.115Z,14.17
2017-02-02T07:11:07.841Z,14.15
2017-02-02T07:12:17.569Z,14.2
2017-02-02T07:13:28.170Z,14.15
2017-02-02T07:14:37.941Z,14.17
2017-02-02T07:15:47.222Z,14.2
2017-02-02T07:16:56.502Z,14.2
2017-02-02T07:18:06.662Z,14.17
2017-02-02T07:19:17.246Z,14.17
2017-02-02T07:20:27.458Z,14.14
2017-02-02T07:21:37.184Z,14.17
2017-02-02T07:22:46.905Z,14.25
2017-02-02T07:23:56.626Z,14.18
2017-02-02T07:25:06.780Z,14.22
2017-02-02T07:26:16.993Z,14.14
2017-02-02T07:27:26.273Z,14.14
2017-02-02T07:28:35.994Z,14.12
2017-02-02T07:29:45.710Z,14.24
2017-02-02T07:30:54.994Z,14.14
2017-02-02T07:32:05.647Z,14.24
2017-02-02T07:33:15.368Z,14.25
2017-02-02T07:34:24.649Z,14.22
2017-02-02T07:35:34.799Z,14.17
2017-02-02T07:36:44.083Z,14.25
2017-02-02T07:37:53.423Z,14.27
2017-02-02T07:39:03.142Z,14.24
2017-02-02T07:40:12.418Z,14.25
2017-02-02T07:41:23.022Z,14.24
2017-02-02T07:42:33.169Z,14.29
2017-02-02T07:43:42.947Z,14.21
2017-02-02T07:44:52.675Z,14.32
2017-02-02T07:46:02.393Z,14.24
2017-02-02T07:47:12.113Z,14.24
2017-02-02T07:48:22.267Z,14.25
2017-02-02T07:49:32.481Z,14.28
2017-02-02T07:50:41.764Z,14.25
2017-02-02T07:51:52.347Z,14.27
2017-02-02T07:53:01.632Z,14.28
2017-02-02T07:54:11.349Z,14.22
2017-02-02T07:55:21.118Z,14.29
2017-02-02T07:56:31.720Z,14.33
2017-02-02T07:57:42.317Z,14.25
2017-02-02T07:58:51.597Z,14.29
2017-02-02T08:00:01.763Z,14.22
2017-02-02T08:01:11.098Z,14.27
2017-02-02T08:02:21.257Z,14.33
2017-02-02T08:03:31.418Z,14.32
2017-02-02T08:04:41.168Z,14.29
2017-02-02T08:05:50.460Z,14.29
2017-02-02T08:06:59.792Z,14.25
2017-02-02T08:08:09.080Z,14.39
2017-02-02T08:09:18.364Z,14.33
2017-02-02T08:10:27.652Z,14.43
2017-02-02T08:11:37.377Z,14.42
2017-02-02T08:12:47.587Z,14.37
2017-02-02T08:13:57.301Z,14.39
2017-02-02T08:15:07.034Z,14.39
2017-02-02T08:16:16.320Z,14.37
2017-02-02T08:17:26.051Z,14.43
2017-02-02T08:18:35.830Z,14.36
2017-02-02T08:19:45.989Z,14.43
2017-02-02T08:20:55.708Z,14.36
2017-02-02T08:22:04.991Z,14.45
2017-02-02T08:23:14.711Z,14.36
2017-02-02T08:24:24.039Z,14.28
2017-02-02T08:25:33.316Z,14.39
2017-02-02T08:26:42.598Z,14.4
2017-02-02T08:27:53.199Z,14.33
2017-02-02T08:29:03.352Z,14.4
2017-02-02T08:30:13.129Z,14.28
2017-02-02T08:31:23.282Z,14.4
2017-02-02T08:32:32.574Z,14.4
2017-02-02T08:33:43.613Z,14.33
2017-02-02T08:34:53.334Z,14.4
2017-02-02T08:36:02.671Z,14.4
2017-02-02T08:37:11.958Z,14.43
2017-02-02T08:38:21.680Z,14.4
2017-02-02T08:39:32.279Z,14.42
2017-02-02T08:40:41.563Z,14.35
2017-02-02T08:41:51.765Z,14.43
2017-02-02T08:43:01.052Z,14.37
2017-02-02T08:44:11.214Z,14.45
2017-02-02T08:45:20.927Z,14.45
2017-02-02T08:46:30.216Z,14.43
2017-02-02T08:47:39.991Z,14.45
2017-02-02T08:48:49.276Z,14.45
2017-02-02T08:49:58.558Z,14.5
2017-02-02T08:51:08.723Z,14.5
2017-02-02T08:52:18.886Z,14.54
2017-02-02T08:53:28.649Z,14.5
2017-02-02T08:54:37.998Z,14.51
2017-02-02T08:55:48.172Z,14.43
2017-02-02T08:56:58.352Z,14.47
2017-02-02T08:58:08.513Z,14.5
2017-02-02T08:59:18.282Z,14.52
2017-02-02T09:00:27.580Z,14.57
2017-02-02T09:01:37.304Z,14.57
2017-02-02T09:02:46.596Z,14.69
2017-02-02T09:03:57.187Z,14.6
2017-02-02T09:05:06.965Z,14.72
2017-02-02T09:06:16.254Z,14.68
2017-02-02T09:07:25.987Z,14.62
2017-02-02T09:08:35.712Z,14.68
2017-02-02T09:09:45.866Z,14.73
2017-02-02T09:10:55.197Z,14.65
2017-02-02T09:12:04.910Z,14.7
2017-02-02T09:13:15.067Z,14.65
2017-02-02T09:14:24.794Z,14.77
2017-02-02T09:15:34.523Z,14.68
2017-02-02T09:16:44.738Z,14.75
2017-02-02T09:17:55.329Z,14.75
2017-02-02T09:19:06.370Z,14.77
2017-02-02T09:20:16.098Z,14.72
2017-02-02T09:21:26.266Z,14.75
2017-02-02T09:22:36.029Z,14.75
2017-02-02T09:23:45.748Z,14.77
2017-02-02T09:24:55.032Z,14.78
2017-02-02T09:26:04.764Z,14.84
2017-02-02T09:27:14.922Z,14.81
2017-02-02T09:28:25.131Z,14.75
2017-02-02T09:29:34.859Z,14.81
2017-02-02T09:30:44.138Z,14.77
2017-02-02T09:31:53.875Z,14.7
2017-02-02T09:33:03.596Z,14.83
2017-02-02T09:34:13.025Z,14.69
2017-02-02T09:35:23.182Z,14.7
2017-02-02T09:36:32.907Z,14.69
2017-02-02T09:37:42.716Z,14.65
2017-02-02T09:38:52.888Z,14.72
2017-02-02T09:40:02.654Z,14.64
2017-02-02T09:41:12.388Z,14.73
2017-02-02T09:42:21.695Z,14.64
2017-02-02T09:43:30.978Z,14.73
2017-02-02T09:44:40.270Z,14.65
2017-02-02T09:45:50.048Z,14.64
2017-02-02T09:46:59.344Z,14.77
2017-02-02T09:48:09.091Z,14.7
2017-02-02T09:49:18.379Z,14.72
2017-02-02T09:50:28.986Z,14.73
2017-02-02T09:51:39.233Z,14.77
2017-02-02T09:52:49.395Z,14.77
2017-02-02T09:53:58.686Z,14.72
2017-02-02T09:55:08.412Z,14.75
2017-02-02T09:56:17.703Z,14.7
2017-02-02T09:57:27.482Z,14.75
2017-02-02T09:58:37.203Z,14.65
2017-02-02T09:59:47.814Z,14.73
2017-02-02T10:00:57.538Z,14.73
2017-02-02T10:02:07.261Z,14.69
2017-02-02T10:03:17.034Z,14.81
2017-02-02T10:04:27.195Z,14.72
2017-02-02T10:05:36.483Z,14.68
2017-02-02T10:06:46.637Z,14.73
2017-02-02T10:07:55.929Z,14.7
2017-02-02T10:09:06.143Z,14.73
2017-02-02T10:10:16.344Z,14.78
2017-02-02T10:11:26.077Z,14.7
2017-02-02T10:12:35.361Z,14.7
2017-02-02T10:13:45.088Z,14.75
2017-02-02T10:14:54.424Z,14.72
2017-02-02T10:16:05.021Z,14.81
2017-02-02T10:17:14.743Z,14.8
2017-02-02T10:18:24.909Z,14.78
2017-02-02T10:19:34.190Z,14.91
2017-02-02T10:20:43.959Z,14.89
2017-02-02T10:21:53.684Z,14.92
2017-02-02T10:23:03.400Z,14.94
2017-02-02T10:24:12.691Z,14.89
2017-02-02T10:25:22.416Z,15.01
2017-02-02T10:26:31.851Z,14.95
2017-02-02T10:27:41.574Z,15.06
2017-02-02T10:28:51.303Z,14.99
2017-02-02T10:30:00.587Z,14.99
2017-02-02T10:31:10.742Z,15.09
2017-02-02T10:32:20.514Z,15.07
2017-02-02T10:33:30.244Z,15.11
2017-02-02T10:34:40.408Z,15.13
2017-02-02T10:35:50.129Z,15.09
2017-02-02T10:36:59.879Z,15.17
2017-02-02T10:38:09.685Z,15.17
2017-02-02T10:39:19.406Z,15.09
2017-02-02T10:40:29.567Z,15.17
2017-02-02T10:41:38.855Z,15.25
2017-02-02T10:42:49.028Z,15.13
2017-02-02T10:43:58.803Z,15.17
2017-02-02T10:45:08.523Z,15.23
2017-02-02T10:46:17.824Z,15.28
2017-02-02T10:47:27.991Z,15.32
2017-02-02T10:48:37.280Z,15.35
2017-02-02T10:49:47.951Z,15.27
2017-02-02T10:50:57.241Z,15.28
2017-02-02T10:52:06.528Z,15.35
2017-02-02T10:53:16.247Z,15.44
2017-02-02T10:54:25.999Z,15.44
2017-02-02T10:55:36.211Z,15.39
2017-02-02T10:56:45.940Z,15.41
2017-02-02T10:57:55.221Z,15.43
2017-02-02T10:59:04.529Z,15.41
2017-02-02T11:00:14.255Z,15.59
2017-02-02T11:01:24.041Z,15.46
2017-02-02T11:02:33.764Z,15.56
2017-02-02T11:03:43.917Z,15.56
2017-02-02T11:04:54.066Z,15.53
2017-02-02T11:06:04.230Z,15.49
2017-02-02T11:07:13.571Z,15.47
2017-02-02T11:08:23.748Z,15.59
2017-02-02T11:09:33.033Z,15.5
2017-02-02T11:10:42.323Z,15.54
2017-02-02T11:11:52.047Z,15.54
2017-02-02T11:13:01.393Z,15.57
2017-02-02T11:14:11.117Z,15.54
2017-02-02T11:15:20.403Z,15.54
2017-02-02T11:16:30.130Z,15.46
2017-02-02T11:17:40.305Z,15.53
2017-02-02T11:18:50.114Z,15.49
2017-02-02T11:19:59.398Z,15.44
2017-02-02T11:21:09.121Z,15.41
2017-02-02T11:22:18.416Z,15.43
2017-02-02T11:23:28.137Z,15.49
2017-02-02T11:24:38.104Z,15.56
2017-02-02T11:25:47.858Z,15.49
2017-02-02T11:26:58.061Z,15.67
2017-02-02T11:28:11.973Z,15.67
2017-02-02T11:29:23.561Z,15.8
2017-02-02T11:30:37.784Z,15.86
2017-02-02T11:31:49.854Z,15.92
2017-02-02T11:33:02.491Z,15.93
2017-02-02T11:34:14.564Z,16
2017-02-02T11:35:26.813Z,16.02
2017-02-02T11:36:38.905Z,16.12
2017-02-02T11:37:53.612Z,16.15
2017-02-02T11:39:07.054Z,16.23
2017-02-02T11:40:19.998Z,16.25
2017-02-02T11:41:32.375Z,16.28
2017-02-02T11:42:44.648Z,16.35
2017-02-02T11:43:57.189Z,16.28
2017-02-02T11:45:09.911Z,16.33
2017-02-02T11:46:21.908Z,16.31
2017-02-02T11:47:34.419Z,16.35
2017-02-02T11:48:46.718Z,16.38
2017-02-02T11:49:57.511Z,16.41
2017-02-02T11:51:08.105Z,16.52
2017-02-02T11:52:20.610Z,16.52
2017-02-02T11:53:30.962Z,16.48
2017-02-02T11:54:41.428Z,16.6
2017-02-02T11:55:53.114Z,16.63
2017-02-02T11:57:04.870Z,16.71
2017-02-02T11:58:15.348Z,16.7
2017-02-02T11:59:25.768Z,16.73
2017-02-02T12:00:35.976Z,16.76
2017-02-02T12:01:45.755Z,16.83
2017-02-02T12:02:59.921Z,16.79
2017-02-02T12:04:10.139Z,16.94
2017-02-02T12:05:20.313Z,16.86
2017-02-02T12:06:36.978Z,16.94
2017-02-02T12:07:51.622Z,17
2017-02-02T12:09:00.929Z,17.04
2017-02-02T12:10:10.270Z,17.04
2017-02-02T12:11:20.443Z,17.07
2017-02-02T12:12:29.735Z,17.07
2017-02-02T12:13:40.494Z,17.16
2017-02-02T12:14:50.530Z,17.18
2017-02-02T12:16:00.252Z,17.14
2017-02-02T12:17:09.533Z,17.14
2017-02-02T12:18:19.882Z,17.18
2017-02-02T12:19:29.528Z,17.18
2017-02-02T12:20:39.139Z,17.23
2017-02-02T12:21:48.938Z,17.28
2017-02-02T12:22:58.223Z,17.26
2017-02-02T12:24:07.949Z,17.37
2017-02-02T12:25:17.333Z,17.31
2017-02-02T12:26:26.894Z,17.43
2017-02-02T12:27:36.212Z,17.41
2017-02-02T12:28:45.673Z,17.51
2017-02-02T12:29:55.052Z,17.52
2017-02-02T12:31:05.551Z,17.51
2017-02-02T12:32:15.447Z,17.62
2017-02-02T12:33:25.340Z,17.64
2017-02-02T12:34:35.385Z,17.72
2017-02-02T12:35:45.115Z,17.68
2017-02-02T12:36:54.406Z,17.72
2017-02-02T12:38:04.462Z,17.66
2017-02-02T12:39:14.186Z,17.82
2017-02-02T12:40:24.356Z,17.87
2017-02-02T12:41:33.737Z,17.84
2017-02-02T12:42:44.346Z,17.89
2017-02-02T12:43:54.572Z,17.9
2017-02-02T12:45:04.733Z,17.89
2017-02-02T12:46:14.499Z,17.95
2017-02-02T12:47:23.791Z,17.96
2017-02-02T12:48:33.524Z,18.02
2017-02-02T12:49:42.870Z,17.96
2017-02-02T12:50:52.700Z,18.08
2017-02-02T12:52:02.425Z,18.03
2017-02-02T12:53:11.883Z,18.1
2017-02-02T12:54:21.167Z,18.08
2017-02-02T12:55:31.515Z,18.1
2017-02-02T12:56:42.126Z,18.08
2017-02-02T12:57:53.161Z,18.17
2017-02-02T12:59:04.392Z,18.23
2017-02-02T13:00:14.561Z,18.2
2017-02-02T13:01:24.097Z,18.18
2017-02-02T13:02:34.573Z,18.2
2017-02-02T13:03:45.240Z,18.37
2017-02-02T13:04:55.538Z,18.35
2017-02-02T13:06:05.283Z,18.23
2017-02-02T13:07:15.070Z,18.3
2017-02-02T13:08:24.797Z,18.35
2017-02-02T13:09:35.389Z,18.33
2017-02-02T13:10:45.427Z,18.44
2017-02-02T13:11:54.721Z,18.45
2017-02-02T13:13:04.069Z,18.42
2017-02-02T13:14:13.847Z,18.45
2017-02-02T13:15:23.876Z,18.48
2017-02-02T13:16:33.985Z,18.5
2017-02-02T13:17:44.156Z,18.52
2017-02-02T13:18:54.814Z,18.55
2017-02-02T13:20:04.112Z,18.52
2017-02-02T13:21:15.415Z,18.62
2017-02-02T13:22:29.538Z,18.7
2017-02-02T13:23:41.456Z,18.76
2017-02-02T13:24:54.880Z,18.75
2017-02-02T13:26:06.833Z,18.76
2017-02-02T13:27:20.575Z,18.82
2017-02-02T13:28:34.969Z,18.84
2017-02-02T13:29:46.725Z,18.91
2017-02-02T13:31:00.726Z,18.85
2017-02-02T13:32:12.459Z,18.85
2017-02-02T13:33:24.513Z,18.88
2017-02-02T13:34:38.211Z,18.84
2017-02-02T13:35:50.004Z,18.92
2017-02-02T13:37:01.597Z,18.94
2017-02-02T13:38:14.437Z,18.91
2017-02-02T13:39:24.963Z,18.99
2017-02-02T13:40:35.061Z,18.99
2017-02-02T13:41:44.838Z,19.07
2017-02-02T13:42:55.470Z,19.06
2017-02-02T13:44:05.204Z,18.99
2017-02-02T13:45:15.102Z,19.1
2017-02-02T13:46:24.552Z,19.18
2017-02-02T13:47:34.338Z,19.16
2017-02-02T13:48:43.652Z,19.21
2017-02-02T13:49:54.900Z,19.22
2017-02-02T13:51:04.630Z,19.32
2017-02-02T13:52:14.357Z,19.23
2017-02-02T13:53:24.579Z,19.26
2017-02-02T13:54:34.498Z,19.31
2017-02-02T13:55:44.842Z,19.25
2017-02-02T13:56:54.578Z,19.32
2017-02-02T13:58:03.871Z,19.39
2017-02-02T13:59:14.524Z,19.4
2017-02-02T14:00:24.258Z,19.41
2017-02-02T14:01:33.555Z,19.46
2017-02-02T14:02:43.724Z,19.46
2017-02-02T14:03:53.021Z,19.47
2017-02-02T14:05:02.992Z,19.47
2017-02-02T14:06:13.699Z,19.47
2017-02-02T14:07:22.985Z,19.51
2017-02-02T14:08:33.573Z,19.5
2017-02-02T14:09:44.001Z,19.56
2017-02-02T14:10:53.779Z,19.56
2017-02-02T14:12:04.159Z,19.54
2017-02-02T14:13:13.889Z,19.58
2017-02-02T14:14:23.726Z,19.58
2017-02-02T14:15:34.051Z,19.58
2017-02-02T14:16:44.380Z,19.59
2017-02-02T14:17:54.187Z,19.61
2017-02-02T14:19:03.912Z,19.65
2017-02-02T14:20:13.210Z,19.63
2017-02-02T14:21:22.503Z,19.56
2017-02-02T14:22:31.845Z,19.63
2017-02-02T14:23:41.583Z,19.62
2017-02-02T14:24:52.374Z,19.66
2017-02-02T14:26:01.667Z,19.58
2017-02-02T14:27:11.389Z,19.74
2017-02-02T14:28:21.258Z,19.68
2017-02-02T14:29:30.553Z,19.71
2017-02-02T14:30:40.280Z,19.69
2017-02-02T14:31:50.451Z,19.65
2017-02-02T14:33:01.051Z,19.68
2017-02-02T14:34:10.388Z,19.69
2017-02-02T14:35:20.130Z,19.76
2017-02-02T14:36:31.307Z,19.68
2017-02-02T14:37:40.603Z,19.68
2017-02-02T14:38:50.401Z,19.71
2017-02-02T14:40:00.710Z,19.73
2017-02-02T14:41:10.910Z,19.68
2017-02-02T14:42:20.636Z,19.73
2017-02-02T14:43:29.926Z,19.76
2017-02-02T14:44:39.223Z,19.73
2017-02-02T14:45:49.212Z,19.74
2017-02-02T14:46:58.957Z,19.69
2017-02-02T14:48:08.253Z,19.76
2017-02-02T14:49:17.551Z,19.73
2017-02-02T14:50:26.844Z,19.76
2017-02-02T14:51:36.629Z,19.86
2017-02-02T14:52:47.250Z,19.8
2017-02-02T14:53:57.198Z,19.81
2017-02-02T14:55:07.035Z,19.71
2017-02-02T14:56:16.549Z,19.83
2017-02-02T14:57:26.987Z,19.83
2017-02-02T14:58:36.736Z,19.86
2017-02-02T14:59:46.036Z,19.83
2017-02-02T15:00:56.212Z,19.8
2017-02-02T15:02:06.383Z,19.91
2017-02-02T15:03:16.168Z,19.88
2017-02-02T15:04:25.461Z,19.88